sensor_id;sensor_type;location;lat;lon;timestamp;P1;durP1;ratioP1;P2;durP2;ratioP2
6725;SDS011;3400;48.506;11.692;2023-07-29T00:01:13;5.67;;;4.17;;
6725;SDS011;3400;48.506;11.692;2023-07-29T00:03:41;4.33;;;3.93;;
6725;SDS011;3400;48.506;11.692;2023-07-29T00:06:09;4.47;;;3.67;;
6725;SDS011;3400;48.506;11.692;2023-07-29T00:08:38;5.23;;;3.93;;
6725;SDS011;3400;48.506;11.692;2023-07-29T00:11:06;4.20;;;3.80;;
6725;SDS011;3400;48.506;11.692;2023-07-29T00:13:34;4.50;;;4.10;;
6725;SDS011;3400;48.506;11.692;2023-07-29T00:16:02;4.37;;;4.03;;
6725;SDS011;3400;48.506;11.692;2023-07-29T00:18:30;6.67;;;3.93;;
6725;SDS011;3400;48.506;11.692;2023-07-29T00:20:58;4.47;;;3.33;;
6725;SDS011;3400;48.506;11.692;2023-07-29T00:23:27;5.20;;;3.37;;
6725;SDS011;3400;48.506;11.692;2023-07-29T00:25:56;3.90;;;3.57;;
6725;SDS011;3400;48.506;11.692;2023-07-29T00:28:24;4.53;;;3.53;;
6725;SDS011;3400;48.506;11.692;2023-07-29T00:30:52;5.17;;;3.63;;
6725;SDS011;3400;48.506;11.692;2023-07-29T00:33:20;3.03;;;2.83;;
6725;SDS011;3400;48.506;11.692;2023-07-29T00:35:47;3.83;;;3.53;;
6725;SDS011;3400;48.506;11.692;2023-07-29T00:38:16;3.87;;;3.37;;
6725;SDS011;3400;48.506;11.692;2023-07-29T00:40:44;4.33;;;3.03;;
6725;SDS011;3400;48.506;11.692;2023-07-29T00:43:13;3.87;;;3.07;;
6725;SDS011;3400;48.506;11.692;2023-07-29T00:45:41;3.63;;;3.33;;
6725;SDS011;3400;48.506;11.692;2023-07-29T00:48:10;3.43;;;3.13;;
6725;SDS011;3400;48.506;11.692;2023-07-29T00:50:39;3.43;;;3.10;;
6725;SDS011;3400;48.506;11.692;2023-07-29T00:53:07;4.47;;;3.17;;
6725;SDS011;3400;48.506;11.692;2023-07-29T00:55:35;3.23;;;2.93;;
6725;SDS011;3400;48.506;11.692;2023-07-29T00:58:03;3.90;;;2.90;;
6725;SDS011;3400;48.506;11.692;2023-07-29T01:00:33;4.03;;;2.97;;
6725;SDS011;3400;48.506;11.692;2023-07-29T01:03:03;3.30;;;2.73;;
6725;SDS011;3400;48.506;11.692;2023-07-29T01:05:33;3.50;;;3.20;;
6725;SDS011;3400;48.506;11.692;2023-07-29T01:08:05;3.60;;;3.10;;
6725;SDS011;3400;48.506;11.692;2023-07-29T01:10:36;6.70;;;3.03;;
6725;SDS011;3400;48.506;11.692;2023-07-29T01:13:10;5.77;;;3.40;;
6725;SDS011;3400;48.506;11.692;2023-07-29T01:15:43;5.13;;;3.60;;
6725;SDS011;3400;48.506;11.692;2023-07-29T01:18:14;2.83;;;2.63;;
6725;SDS011;3400;48.506;11.692;2023-07-29T01:20:46;3.53;;;2.80;;
6725;SDS011;3400;48.506;11.692;2023-07-29T01:23:15;3.87;;;2.87;;
6725;SDS011;3400;48.506;11.692;2023-07-29T01:25:44;3.13;;;2.83;;
6725;SDS011;3400;48.506;11.692;2023-07-29T01:28:12;5.30;;;3.00;;
6725;SDS011;3400;48.506;11.692;2023-07-29T01:30:41;4.07;;;2.80;;
6725;SDS011;3400;48.506;11.692;2023-07-29T01:33:12;5.13;;;3.17;;
6725;SDS011;3400;48.506;11.692;2023-07-29T01:35:42;5.27;;;2.80;;
6725;SDS011;3400;48.506;11.692;2023-07-29T01:38:12;3.60;;;2.90;;
6725;SDS011;3400;48.506;11.692;2023-07-29T01:40:41;5.57;;;2.73;;
6725;SDS011;3400;48.506;11.692;2023-07-29T01:43:11;3.40;;;2.83;;
6725;SDS011;3400;48.506;11.692;2023-07-29T01:45:39;6.10;;;2.90;;
6725;SDS011;3400;48.506;11.692;2023-07-29T01:48:07;3.90;;;3.10;;
6725;SDS011;3400;48.506;11.692;2023-07-29T01:50:35;5.23;;;2.90;;
6725;SDS011;3400;48.506;11.692;2023-07-29T01:53:03;7.60;;;2.70;;
6725;SDS011;3400;48.506;11.692;2023-07-29T01:55:31;4.43;;;2.83;;
6725;SDS011;3400;48.506;11.692;2023-07-29T01:57:59;5.27;;;3.10;;
6725;SDS011;3400;48.506;11.692;2023-07-29T02:00:29;5.37;;;3.47;;
6725;SDS011;3400;48.506;11.692;2023-07-29T02:02:57;5.03;;;3.70;;
6725;SDS011;3400;48.506;11.692;2023-07-29T02:05:25;5.87;;;3.60;;
6725;SDS011;3400;48.506;11.692;2023-07-29T02:07:53;7.90;;;3.50;;
6725;SDS011;3400;48.506;11.692;2023-07-29T02:10:20;6.87;;;3.70;;
6725;SDS011;3400;48.506;11.692;2023-07-29T02:12:48;4.97;;;3.53;;
6725;SDS011;3400;48.506;11.692;2023-07-29T02:15:16;5.80;;;3.87;;
6725;SDS011;3400;48.506;11.692;2023-07-29T02:17:46;6.20;;;4.13;;
6725;SDS011;3400;48.506;11.692;2023-07-29T02:20:14;5.60;;;3.60;;
6725;SDS011;3400;48.506;11.692;2023-07-29T02:22:42;3.87;;;3.37;;
6725;SDS011;3400;48.506;11.692;2023-07-29T02:25:10;6.07;;;4.00;;
6725;SDS011;3400;48.506;11.692;2023-07-29T02:27:38;5.90;;;3.87;;
6725;SDS011;3400;48.506;11.692;2023-07-29T02:30:06;5.03;;;4.53;;
6725;SDS011;3400;48.506;11.692;2023-07-29T02:32:35;4.37;;;3.97;;
6725;SDS011;3400;48.506;11.692;2023-07-29T02:35:05;8.20;;;3.87;;
6725;SDS011;3400;48.506;11.692;2023-07-29T02:37:33;3.43;;;3.13;;
6725;SDS011;3400;48.506;11.692;2023-07-29T02:40:01;4.43;;;3.80;;
6725;SDS011;3400;48.506;11.692;2023-07-29T02:42:29;4.20;;;3.30;;
6725;SDS011;3400;48.506;11.692;2023-07-29T02:44:57;5.33;;;3.87;;
6725;SDS011;3400;48.506;11.692;2023-07-29T02:47:25;4.10;;;3.63;;
6725;SDS011;3400;48.506;11.692;2023-07-29T02:49:53;5.77;;;3.30;;
6725;SDS011;3400;48.506;11.692;2023-07-29T02:52:23;4.50;;;3.80;;
6725;SDS011;3400;48.506;11.692;2023-07-29T02:54:50;6.93;;;4.10;;
6725;SDS011;3400;48.506;11.692;2023-07-29T02:57:18;5.50;;;4.03;;
6725;SDS011;3400;48.506;11.692;2023-07-29T02:59:46;3.77;;;3.37;;
6725;SDS011;3400;48.506;11.692;2023-07-29T03:02:14;3.90;;;3.60;;
6725;SDS011;3400;48.506;11.692;2023-07-29T03:04:42;4.00;;;3.63;;
6725;SDS011;3400;48.506;11.692;2023-07-29T03:07:10;4.50;;;3.93;;
6725;SDS011;3400;48.506;11.692;2023-07-29T03:09:40;7.73;;;4.47;;
6725;SDS011;3400;48.506;11.692;2023-07-29T03:12:08;4.43;;;4.03;;
6725;SDS011;3400;48.506;11.692;2023-07-29T03:14:36;5.57;;;4.27;;
6725;SDS011;3400;48.506;11.692;2023-07-29T03:17:04;7.40;;;5.00;;
6725;SDS011;3400;48.506;11.692;2023-07-29T03:19:32;4.63;;;4.10;;
6725;SDS011;3400;48.506;11.692;2023-07-29T03:22:00;5.80;;;4.60;;
6725;SDS011;3400;48.506;11.692;2023-07-29T03:24:29;7.17;;;4.80;;
6725;SDS011;3400;48.506;11.692;2023-07-29T03:26:58;4.37;;;3.97;;
6725;SDS011;3400;48.506;11.692;2023-07-29T03:29:26;4.27;;;3.87;;
6725;SDS011;3400;48.506;11.692;2023-07-29T03:31:54;5.57;;;4.40;;
6725;SDS011;3400;48.506;11.692;2023-07-29T03:34:22;4.30;;;3.90;;
6725;SDS011;3400;48.506;11.692;2023-07-29T03:36:50;6.33;;;3.90;;
6725;SDS011;3400;48.506;11.692;2023-07-29T03:39:18;4.50;;;4.13;;
6725;SDS011;3400;48.506;11.692;2023-07-29T03:41:45;4.90;;;4.33;;
6725;SDS011;3400;48.506;11.692;2023-07-29T03:44:15;5.57;;;3.90;;
6725;SDS011;3400;48.506;11.692;2023-07-29T03:46:44;4.60;;;4.10;;
6725;SDS011;3400;48.506;11.692;2023-07-29T03:49:11;4.80;;;4.40;;
6725;SDS011;3400;48.506;11.692;2023-07-29T03:51:39;4.40;;;4.00;;
6725;SDS011;3400;48.506;11.692;2023-07-29T03:54:07;5.33;;;4.30;;
6725;SDS011;3400;48.506;11.692;2023-07-29T03:56:36;5.47;;;4.63;;
6725;SDS011;3400;48.506;11.692;2023-07-29T03:59:04;4.57;;;4.17;;
6725;SDS011;3400;48.506;11.692;2023-07-29T04:01:34;5.87;;;5.27;;
6725;SDS011;3400;48.506;11.692;2023-07-29T04:04:02;5.20;;;4.70;;
6725;SDS011;3400;48.506;11.692;2023-07-29T04:06:31;4.17;;;3.87;;
6725;SDS011;3400;48.506;11.692;2023-07-29T04:08:59;5.33;;;4.83;;
6725;SDS011;3400;48.506;11.692;2023-07-29T04:11:27;6.97;;;4.60;;
6725;SDS011;3400;48.506;11.692;2023-07-29T04:13:55;5.00;;;4.50;;
6725;SDS011;3400;48.506;11.692;2023-07-29T04:16:23;7.63;;;4.50;;
6725;SDS011;3400;48.506;11.692;2023-07-29T04:18:52;4.63;;;4.23;;
6725;SDS011;3400;48.506;11.692;2023-07-29T04:21:20;4.00;;;3.70;;
6725;SDS011;3400;48.506;11.692;2023-07-29T04:23:48;6.03;;;4.83;;
6725;SDS011;3400;48.506;11.692;2023-07-29T04:26:16;5.63;;;4.63;;
6725;SDS011;3400;48.506;11.692;2023-07-29T04:28:44;6.63;;;4.50;;
6725;SDS011;3400;48.506;11.692;2023-07-29T04:31:11;6.23;;;5.17;;
6725;SDS011;3400;48.506;11.692;2023-07-29T04:33:39;5.10;;;4.70;;
6725;SDS011;3400;48.506;11.692;2023-07-29T04:36:09;8.20;;;5.60;;
6725;SDS011;3400;48.506;11.692;2023-07-29T04:38:37;7.27;;;4.67;;
6725;SDS011;3400;48.506;11.692;2023-07-29T04:41:04;6.87;;;4.27;;
6725;SDS011;3400;48.506;11.692;2023-07-29T04:43:34;4.37;;;3.97;;
6725;SDS011;3400;48.506;11.692;2023-07-29T04:46:02;5.13;;;4.43;;
6725;SDS011;3400;48.506;11.692;2023-07-29T04:48:30;5.07;;;4.53;;
6725;SDS011;3400;48.506;11.692;2023-07-29T04:50:58;5.13;;;4.47;;
6725;SDS011;3400;48.506;11.692;2023-07-29T04:53:27;4.60;;;4.20;;
6725;SDS011;3400;48.506;11.692;2023-07-29T04:55:55;5.20;;;4.70;;
6725;SDS011;3400;48.506;11.692;2023-07-29T04:58:23;10.40;;;5.47;;
6725;SDS011;3400;48.506;11.692;2023-07-29T05:00:51;5.20;;;4.70;;
6725;SDS011;3400;48.506;11.692;2023-07-29T05:03:18;5.00;;;4.30;;
6725;SDS011;3400;48.506;11.692;2023-07-29T05:05:46;5.53;;;5.03;;
6725;SDS011;3400;48.506;11.692;2023-07-29T05:08:14;6.67;;;4.70;;
6725;SDS011;3400;48.506;11.692;2023-07-29T05:10:44;5.97;;;4.47;;
6725;SDS011;3400;48.506;11.692;2023-07-29T05:13:11;4.20;;;3.80;;
6725;SDS011;3400;48.506;11.692;2023-07-29T05:15:39;5.00;;;4.50;;
6725;SDS011;3400;48.506;11.692;2023-07-29T05:18:07;5.63;;;4.37;;
6725;SDS011;3400;48.506;11.692;2023-07-29T05:20:35;5.40;;;4.50;;
6725;SDS011;3400;48.506;11.692;2023-07-29T05:23:03;5.40;;;4.90;;
6725;SDS011;3400;48.506;11.692;2023-07-29T05:25:31;6.17;;;4.33;;
6725;SDS011;3400;48.506;11.692;2023-07-29T05:28:01;5.27;;;4.83;;
6725;SDS011;3400;48.506;11.692;2023-07-29T05:30:29;6.00;;;4.43;;
6725;SDS011;3400;48.506;11.692;2023-07-29T05:32:57;5.67;;;3.93;;
6725;SDS011;3400;48.506;11.692;2023-07-29T05:35:25;4.87;;;4.37;;
6725;SDS011;3400;48.506;11.692;2023-07-29T05:37:53;4.80;;;4.40;;
6725;SDS011;3400;48.506;11.692;2023-07-29T05:40:21;4.50;;;4.03;;
6725;SDS011;3400;48.506;11.692;2023-07-29T05:42:49;4.73;;;4.07;;
6725;SDS011;3400;48.506;11.692;2023-07-29T05:45:19;4.30;;;3.90;;
6725;SDS011;3400;48.506;11.692;2023-07-29T05:47:50;7.00;;;3.43;;
6725;SDS011;3400;48.506;11.692;2023-07-29T05:50:20;6.93;;;3.80;;
6725;SDS011;3400;48.506;11.692;2023-07-29T05:52:49;4.43;;;3.33;;
6725;SDS011;3400;48.506;11.692;2023-07-29T05:55:18;4.13;;;3.50;;
6725;SDS011;3400;48.506;11.692;2023-07-29T05:57:46;3.17;;;2.97;;
6725;SDS011;3400;48.506;11.692;2023-07-29T06:00:14;3.60;;;3.13;;
6725;SDS011;3400;48.506;11.692;2023-07-29T06:02:43;3.57;;;3.27;;
6725;SDS011;3400;48.506;11.692;2023-07-29T06:05:16;3.40;;;2.90;;
6725;SDS011;3400;48.506;11.692;2023-07-29T06:07:43;3.63;;;3.33;;
6725;SDS011;3400;48.506;11.692;2023-07-29T06:10:14;3.63;;;3.33;;
6725;SDS011;3400;48.506;11.692;2023-07-29T06:12:44;3.20;;;2.93;;
6725;SDS011;3400;48.506;11.692;2023-07-29T06:15:12;3.60;;;3.30;;
6725;SDS011;3400;48.506;11.692;2023-07-29T06:17:43;4.30;;;3.30;;
6725;SDS011;3400;48.506;11.692;2023-07-29T06:20:11;4.00;;;3.60;;
6725;SDS011;3400;48.506;11.692;2023-07-29T06:22:38;3.00;;;2.80;;
6725;SDS011;3400;48.506;11.692;2023-07-29T06:25:06;3.50;;;3.20;;
6725;SDS011;3400;48.506;11.692;2023-07-29T06:27:35;4.40;;;3.23;;
6725;SDS011;3400;48.506;11.692;2023-07-29T06:30:03;3.63;;;3.33;;
6725;SDS011;3400;48.506;11.692;2023-07-29T06:32:31;4.30;;;3.60;;
6725;SDS011;3400;48.506;11.692;2023-07-29T06:35:00;6.17;;;3.57;;
6725;SDS011;3400;48.506;11.692;2023-07-29T06:37:28;5.17;;;3.40;;
6725;SDS011;3400;48.506;11.692;2023-07-29T06:39:56;3.27;;;2.93;;
6725;SDS011;3400;48.506;11.692;2023-07-29T06:42:24;4.40;;;3.47;;
6725;SDS011;3400;48.506;11.692;2023-07-29T06:44:52;4.37;;;3.37;;
6725;SDS011;3400;48.506;11.692;2023-07-29T06:47:19;2.93;;;2.73;;
6725;SDS011;3400;48.506;11.692;2023-07-29T06:49:47;3.50;;;3.20;;
6725;SDS011;3400;48.506;11.692;2023-07-29T06:52:17;6.23;;;3.07;;
6725;SDS011;3400;48.506;11.692;2023-07-29T06:54:45;3.00;;;2.80;;
6725;SDS011;3400;48.506;11.692;2023-07-29T06:57:13;4.17;;;3.27;;
6725;SDS011;3400;48.506;11.692;2023-07-29T06:59:40;6.57;;;3.17;;
6725;SDS011;3400;48.506;11.692;2023-07-29T07:02:08;5.83;;;3.40;;
6725;SDS011;3400;48.506;11.692;2023-07-29T07:04:36;4.57;;;3.00;;
6725;SDS011;3400;48.506;11.692;2023-07-29T07:07:04;5.37;;;3.03;;
6725;SDS011;3400;48.506;11.692;2023-07-29T07:09:34;8.37;;;3.30;;
6725;SDS011;3400;48.506;11.692;2023-07-29T07:12:01;4.77;;;3.07;;
6725;SDS011;3400;48.506;11.692;2023-07-29T07:14:29;4.33;;;2.90;;
6725;SDS011;3400;48.506;11.692;2023-07-29T07:16:57;6.47;;;2.73;;
6725;SDS011;3400;48.506;11.692;2023-07-29T07:19:25;4.03;;;3.27;;
6725;SDS011;3400;48.506;11.692;2023-07-29T07:21:53;3.40;;;3.10;;
6725;SDS011;3400;48.506;11.692;2023-07-29T07:24:21;3.30;;;3.10;;
6725;SDS011;3400;48.506;11.692;2023-07-29T07:26:50;4.10;;;3.47;;
6725;SDS011;3400;48.506;11.692;2023-07-29T07:29:18;4.00;;;3.70;;
6725;SDS011;3400;48.506;11.692;2023-07-29T07:31:49;3.93;;;3.23;;
6725;SDS011;3400;48.506;11.692;2023-07-29T07:34:21;5.90;;;3.03;;
6725;SDS011;3400;48.506;11.692;2023-07-29T07:36:49;4.67;;;2.80;;
6725;SDS011;3400;48.506;11.692;2023-07-29T07:39:17;6.17;;;3.10;;
6725;SDS011;3400;48.506;11.692;2023-07-29T07:41:44;5.93;;;3.53;;
6725;SDS011;3400;48.506;11.692;2023-07-29T07:44:14;3.40;;;3.07;;
6725;SDS011;3400;48.506;11.692;2023-07-29T07:46:43;4.77;;;2.57;;
6725;SDS011;3400;48.506;11.692;2023-07-29T07:49:11;3.47;;;3.17;;
6725;SDS011;3400;48.506;11.692;2023-07-29T07:51:39;4.97;;;3.33;;
6725;SDS011;3400;48.506;11.692;2023-07-29T07:54:07;4.57;;;3.23;;
6725;SDS011;3400;48.506;11.692;2023-07-29T07:56:35;4.67;;;3.27;;
6725;SDS011;3400;48.506;11.692;2023-07-29T07:59:03;3.70;;;3.40;;
6725;SDS011;3400;48.506;11.692;2023-07-29T08:01:35;3.63;;;3.10;;
6725;SDS011;3400;48.506;11.692;2023-07-29T08:04:03;4.70;;;2.93;;
6725;SDS011;3400;48.506;11.692;2023-07-29T08:06:31;3.63;;;3.30;;
6725;SDS011;3400;48.506;11.692;2023-07-29T08:08:59;3.40;;;3.10;;
6725;SDS011;3400;48.506;11.692;2023-07-29T08:11:27;3.40;;;3.10;;
6725;SDS011;3400;48.506;11.692;2023-07-29T08:13:55;4.27;;;3.23;;
6725;SDS011;3400;48.506;11.692;2023-07-29T08:16:23;4.53;;;3.50;;
6725;SDS011;3400;48.506;11.692;2023-07-29T08:18:52;3.80;;;3.50;;
6725;SDS011;3400;48.506;11.692;2023-07-29T08:21:20;3.27;;;3.07;;
6725;SDS011;3400;48.506;11.692;2023-07-29T08:23:48;4.27;;;2.87;;
6725;SDS011;3400;48.506;11.692;2023-07-29T08:26:16;3.43;;;3.10;;
6725;SDS011;3400;48.506;11.692;2023-07-29T08:28:44;3.60;;;3.30;;
6725;SDS011;3400;48.506;11.692;2023-07-29T08:31:12;3.57;;;3.27;;
6725;SDS011;3400;48.506;11.692;2023-07-29T08:33:40;3.50;;;3.20;;
6725;SDS011;3400;48.506;11.692;2023-07-29T08:36:09;4.13;;;3.73;;
6725;SDS011;3400;48.506;11.692;2023-07-29T08:38:37;3.00;;;2.80;;
6725;SDS011;3400;48.506;11.692;2023-07-29T08:41:06;5.20;;;3.10;;
6725;SDS011;3400;48.506;11.692;2023-07-29T08:43:36;4.13;;;3.27;;
6725;SDS011;3400;48.506;11.692;2023-07-29T08:46:05;3.43;;;3.03;;
6725;SDS011;3400;48.506;11.692;2023-07-29T08:48:36;3.27;;;3.07;;
6725;SDS011;3400;48.506;11.692;2023-07-29T08:51:09;3.63;;;3.13;;
6725;SDS011;3400;48.506;11.692;2023-07-29T08:53:37;3.27;;;3.03;;
6725;SDS011;3400;48.506;11.692;2023-07-29T08:56:06;3.77;;;3.43;;
6725;SDS011;3400;48.506;11.692;2023-07-29T08:58:34;3.47;;;3.17;;
6725;SDS011;3400;48.506;11.692;2023-07-29T09:01:02;3.47;;;3.17;;
6725;SDS011;3400;48.506;11.692;2023-07-29T09:03:30;3.70;;;3.40;;
6725;SDS011;3400;48.506;11.692;2023-07-29T09:05:58;4.07;;;3.43;;
6725;SDS011;3400;48.506;11.692;2023-07-29T09:08:27;4.13;;;3.47;;
6725;SDS011;3400;48.506;11.692;2023-07-29T09:10:55;3.97;;;3.33;;
6725;SDS011;3400;48.506;11.692;2023-07-29T09:13:23;4.20;;;3.80;;
6725;SDS011;3400;48.506;11.692;2023-07-29T09:15:54;5.57;;;3.63;;
6725;SDS011;3400;48.506;11.692;2023-07-29T09:18:22;4.13;;;3.53;;
6725;SDS011;3400;48.506;11.692;2023-07-29T09:20:50;4.77;;;3.80;;
6725;SDS011;3400;48.506;11.692;2023-07-29T09:23:18;32.87;;;11.53;;
6725;SDS011;3400;48.506;11.692;2023-07-29T09:25:47;25.53;;;9.57;;
6725;SDS011;3400;48.506;11.692;2023-07-29T09:28:15;6.63;;;3.80;;
6725;SDS011;3400;48.506;11.692;2023-07-29T09:30:44;4.30;;;3.60;;
6725;SDS011;3400;48.506;11.692;2023-07-29T09:33:12;4.20;;;3.57;;
6725;SDS011;3400;48.506;11.692;2023-07-29T09:35:41;7.40;;;3.40;;
6725;SDS011;3400;48.506;11.692;2023-07-29T09:38:10;6.33;;;3.73;;
6725;SDS011;3400;48.506;11.692;2023-07-29T09:40:41;4.17;;;3.30;;
6725;SDS011;3400;48.506;11.692;2023-07-29T09:43:12;4.03;;;3.50;;
6725;SDS011;3400;48.506;11.692;2023-07-29T09:45:40;3.83;;;2.97;;
6725;SDS011;3400;48.506;11.692;2023-07-29T09:48:08;6.07;;;3.60;;
6725;SDS011;3400;48.506;11.692;2023-07-29T09:50:36;5.07;;;3.70;;
6725;SDS011;3400;48.506;11.692;2023-07-29T09:53:03;5.10;;;3.57;;
6725;SDS011;3400;48.506;11.692;2023-07-29T09:55:32;4.47;;;3.20;;
6725;SDS011;3400;48.506;11.692;2023-07-29T09:58:01;5.93;;;4.93;;
6725;SDS011;3400;48.506;11.692;2023-07-29T10:00:34;4.67;;;4.07;;
6725;SDS011;3400;48.506;11.692;2023-07-29T10:03:04;7.27;;;4.27;;
6725;SDS011;3400;48.506;11.692;2023-07-29T10:05:32;4.43;;;3.40;;
6725;SDS011;3400;48.506;11.692;2023-07-29T10:08:00;6.90;;;4.60;;
6725;SDS011;3400;48.506;11.692;2023-07-29T10:10:29;7.93;;;4.10;;
6725;SDS011;3400;48.506;11.692;2023-07-29T10:12:57;10.03;;;6.10;;
6725;SDS011;3400;48.506;11.692;2023-07-29T10:15:25;12.80;;;5.43;;
6725;SDS011;3400;48.506;11.692;2023-07-29T10:17:54;4.03;;;3.63;;
6725;SDS011;3400;48.506;11.692;2023-07-29T10:20:22;3.30;;;3.00;;
6725;SDS011;3400;48.506;11.692;2023-07-29T10:22:50;4.87;;;2.63;;
6725;SDS011;3400;48.506;11.692;2023-07-29T10:25:22;3.10;;;2.80;;
6725;SDS011;3400;48.506;11.692;2023-07-29T10:27:52;3.10;;;2.80;;
6725;SDS011;3400;48.506;11.692;2023-07-29T10:30:21;3.17;;;2.87;;
6725;SDS011;3400;48.506;11.692;2023-07-29T10:32:49;2.90;;;2.60;;
6725;SDS011;3400;48.506;11.692;2023-07-29T10:35:18;4.33;;;2.70;;
6725;SDS011;3400;48.506;11.692;2023-07-29T10:37:46;4.00;;;2.17;;
6725;SDS011;3400;48.506;11.692;2023-07-29T10:40:16;5.53;;;2.13;;
6725;SDS011;3400;48.506;11.692;2023-07-29T10:42:59;3.33;;;2.37;;
6725;SDS011;3400;48.506;11.692;2023-07-29T10:45:28;2.83;;;2.40;;
6725;SDS011;3400;48.506;11.692;2023-07-29T10:48:05;3.67;;;2.50;;
6725;SDS011;3400;48.506;11.692;2023-07-29T10:50:35;4.23;;;2.40;;
6725;SDS011;3400;48.506;11.692;2023-07-29T10:53:03;2.90;;;2.70;;
6725;SDS011;3400;48.506;11.692;2023-07-29T10:55:32;3.40;;;2.40;;
6725;SDS011;3400;48.506;11.692;2023-07-29T10:58:07;2.73;;;2.53;;
6725;SDS011;3400;48.506;11.692;2023-07-29T11:00:35;2.90;;;2.50;;
6725;SDS011;3400;48.506;11.692;2023-07-29T11:03:05;3.07;;;2.67;;
6725;SDS011;3400;48.506;11.692;2023-07-29T11:05:48;3.10;;;2.80;;
6725;SDS011;3400;48.506;11.692;2023-07-29T11:08:17;2.80;;;2.50;;
6725;SDS011;3400;48.506;11.692;2023-07-29T11:10:50;5.30;;;3.13;;
6725;SDS011;3400;48.506;11.692;2023-07-29T11:13:25;3.00;;;2.50;;
6725;SDS011;3400;48.506;11.692;2023-07-29T11:15:53;5.87;;;3.10;;
6725;SDS011;3400;48.506;11.692;2023-07-29T11:18:22;5.10;;;2.80;;
6725;SDS011;3400;48.506;11.692;2023-07-29T11:20:51;3.43;;;2.87;;
6725;SDS011;3400;48.506;11.692;2023-07-29T11:23:21;4.03;;;2.70;;
6725;SDS011;3400;48.506;11.692;2023-07-29T11:25:54;2.83;;;2.63;;
6725;SDS011;3400;48.506;11.692;2023-07-29T11:28:22;2.90;;;2.17;;
6725;SDS011;3400;48.506;11.692;2023-07-29T11:30:50;3.20;;;2.90;;
6725;SDS011;3400;48.506;11.692;2023-07-29T11:33:19;4.57;;;2.90;;
6725;SDS011;3400;48.506;11.692;2023-07-29T11:35:48;3.27;;;2.93;;
6725;SDS011;3400;48.506;11.692;2023-07-29T11:38:18;2.97;;;2.67;;
6725;SDS011;3400;48.506;11.692;2023-07-29T11:40:58;3.83;;;3.30;;
6725;SDS011;3400;48.506;11.692;2023-07-29T11:43:28;3.30;;;2.70;;
6725;SDS011;3400;48.506;11.692;2023-07-29T11:45:56;3.87;;;3.37;;
6725;SDS011;3400;48.506;11.692;2023-07-29T11:48:31;4.73;;;3.27;;
6725;SDS011;3400;48.506;11.692;2023-07-29T11:50:59;4.77;;;3.77;;
6725;SDS011;3400;48.506;11.692;2023-07-29T11:53:29;3.40;;;3.10;;
6725;SDS011;3400;48.506;11.692;2023-07-29T11:55:57;4.33;;;3.37;;
6725;SDS011;3400;48.506;11.692;2023-07-29T11:58:25;4.87;;;4.03;;
6725;SDS011;3400;48.506;11.692;2023-07-29T12:00:53;5.03;;;3.97;;
6725;SDS011;3400;48.506;11.692;2023-07-29T12:03:21;4.20;;;3.40;;
6725;SDS011;3400;48.506;11.692;2023-07-29T12:05:49;4.57;;;3.37;;
6725;SDS011;3400;48.506;11.692;2023-07-29T12:08:17;4.13;;;3.63;;
6725;SDS011;3400;48.506;11.692;2023-07-29T12:10:47;4.03;;;3.63;;
6725;SDS011;3400;48.506;11.692;2023-07-29T12:13:15;3.50;;;3.20;;
6725;SDS011;3400;48.506;11.692;2023-07-29T12:15:43;3.87;;;3.47;;
6725;SDS011;3400;48.506;11.692;2023-07-29T12:18:10;4.27;;;3.60;;
6725;SDS011;3400;48.506;11.692;2023-07-29T12:20:40;4.17;;;3.13;;
6725;SDS011;3400;48.506;11.692;2023-07-29T12:23:08;4.30;;;2.90;;
6725;SDS011;3400;48.506;11.692;2023-07-29T12:25:36;3.10;;;2.80;;
6725;SDS011;3400;48.506;11.692;2023-07-29T12:28:07;3.87;;;3.43;;
6725;SDS011;3400;48.506;11.692;2023-07-29T12:30:40;2.93;;;2.73;;
6725;SDS011;3400;48.506;11.692;2023-07-29T12:33:08;2.80;;;2.53;;
6725;SDS011;3400;48.506;11.692;2023-07-29T12:35:36;2.93;;;2.43;;
6725;SDS011;3400;48.506;11.692;2023-07-29T12:38:05;3.00;;;2.70;;
6725;SDS011;3400;48.506;11.692;2023-07-29T12:40:37;4.63;;;3.00;;
6725;SDS011;3400;48.506;11.692;2023-07-29T12:43:06;3.40;;;3.10;;
6725;SDS011;3400;48.506;11.692;2023-07-29T12:45:35;3.13;;;2.93;;
6725;SDS011;3400;48.506;11.692;2023-07-29T12:48:05;3.43;;;3.13;;
6725;SDS011;3400;48.506;11.692;2023-07-29T12:50:33;3.10;;;2.80;;
6725;SDS011;3400;48.506;11.692;2023-07-29T12:53:01;4.13;;;2.50;;
6725;SDS011;3400;48.506;11.692;2023-07-29T12:55:29;3.10;;;2.90;;
6725;SDS011;3400;48.506;11.692;2023-07-29T12:57:57;4.17;;;2.90;;
6725;SDS011;3400;48.506;11.692;2023-07-29T13:00:26;2.70;;;2.50;;
6725;SDS011;3400;48.506;11.692;2023-07-29T13:02:54;2.57;;;2.47;;
6725;SDS011;3400;48.506;11.692;2023-07-29T13:05:22;2.87;;;2.40;;
6725;SDS011;3400;48.506;11.692;2023-07-29T13:07:50;2.53;;;2.00;;
6725;SDS011;3400;48.506;11.692;2023-07-29T13:10:18;2.50;;;2.30;;
6725;SDS011;3400;48.506;11.692;2023-07-29T13:12:46;3.40;;;2.10;;
6725;SDS011;3400;48.506;11.692;2023-07-29T13:15:14;2.33;;;1.70;;
6725;SDS011;3400;48.506;11.692;2023-07-29T13:17:43;2.30;;;2.00;;
6725;SDS011;3400;48.506;11.692;2023-07-29T13:20:11;2.23;;;2.03;;
6725;SDS011;3400;48.506;11.692;2023-07-29T13:22:39;2.27;;;2.07;;
6725;SDS011;3400;48.506;11.692;2023-07-29T13:25:07;2.73;;;2.00;;
6725;SDS011;3400;48.506;11.692;2023-07-29T13:27:35;2.13;;;2.00;;
6725;SDS011;3400;48.506;11.692;2023-07-29T13:30:03;1.77;;;1.67;;
6725;SDS011;3400;48.506;11.692;2023-07-29T13:32:31;1.97;;;1.77;;
6725;SDS011;3400;48.506;11.692;2023-07-29T13:35:01;2.40;;;2.20;;
6725;SDS011;3400;48.506;11.692;2023-07-29T13:37:29;3.90;;;1.93;;
6725;SDS011;3400;48.506;11.692;2023-07-29T13:39:56;3.07;;;1.67;;
6725;SDS011;3400;48.506;11.692;2023-07-29T13:42:24;3.20;;;1.73;;
6725;SDS011;3400;48.506;11.692;2023-07-29T13:44:53;2.00;;;1.80;;
6725;SDS011;3400;48.506;11.692;2023-07-29T13:47:21;1.87;;;1.77;;
6725;SDS011;3400;48.506;11.692;2023-07-29T13:49:49;4.90;;;1.83;;
6725;SDS011;3400;48.506;11.692;2023-07-29T13:52:18;2.53;;;2.03;;
6725;SDS011;3400;48.506;11.692;2023-07-29T13:54:46;3.87;;;1.83;;
6725;SDS011;3400;48.506;11.692;2023-07-29T13:57:14;1.90;;;1.80;;
6725;SDS011;3400;48.506;11.692;2023-07-29T13:59:42;1.90;;;1.80;;
6725;SDS011;3400;48.506;11.692;2023-07-29T14:02:10;2.00;;;1.90;;
6725;SDS011;3400;48.506;11.692;2023-07-29T14:04:38;2.37;;;1.70;;
6725;SDS011;3400;48.506;11.692;2023-07-29T14:07:06;3.80;;;2.20;;
6725;SDS011;3400;48.506;11.692;2023-07-29T14:09:35;2.10;;;1.90;;
6725;SDS011;3400;48.506;11.692;2023-07-29T14:12:04;3.83;;;2.33;;
6725;SDS011;3400;48.506;11.692;2023-07-29T14:14:32;8.03;;;2.87;;
6725;SDS011;3400;48.506;11.692;2023-07-29T14:17:00;2.87;;;2.43;;
6725;SDS011;3400;48.506;11.692;2023-07-29T14:19:28;5.90;;;2.23;;
6725;SDS011;3400;48.506;11.692;2023-07-29T14:21:56;2.80;;;2.07;;
6725;SDS011;3400;48.506;11.692;2023-07-29T14:24:23;2.40;;;2.20;;
6725;SDS011;3400;48.506;11.692;2023-07-29T14:26:52;9.43;;;2.53;;
6725;SDS011;3400;48.506;11.692;2023-07-29T14:29:20;4.23;;;2.97;;
6725;SDS011;3400;48.506;11.692;2023-07-29T14:31:48;3.60;;;2.90;;
6725;SDS011;3400;48.506;11.692;2023-07-29T14:34:16;3.20;;;3.00;;
6725;SDS011;3400;48.506;11.692;2023-07-29T14:36:43;3.03;;;2.73;;
6725;SDS011;3400;48.506;11.692;2023-07-29T14:39:11;2.33;;;1.90;;
6725;SDS011;3400;48.506;11.692;2023-07-29T14:41:39;2.47;;;2.27;;
6725;SDS011;3400;48.506;11.692;2023-07-29T14:44:09;2.67;;;2.47;;
6725;SDS011;3400;48.506;11.692;2023-07-29T14:46:37;2.43;;;2.23;;
6725;SDS011;3400;48.506;11.692;2023-07-29T14:49:06;4.33;;;2.57;;
6725;SDS011;3400;48.506;11.692;2023-07-29T14:51:36;3.23;;;2.93;;
6725;SDS011;3400;48.506;11.692;2023-07-29T14:54:05;2.50;;;2.30;;
6725;SDS011;3400;48.506;11.692;2023-07-29T14:56:33;3.07;;;2.13;;
6725;SDS011;3400;48.506;11.692;2023-07-29T14:59:01;2.27;;;2.17;;
6725;SDS011;3400;48.506;11.692;2023-07-29T15:01:31;2.60;;;2.40;;
6725;SDS011;3400;48.506;11.692;2023-07-29T15:03:59;2.53;;;2.30;;
6725;SDS011;3400;48.506;11.692;2023-07-29T15:06:26;2.90;;;2.50;;
6725;SDS011;3400;48.506;11.692;2023-07-29T15:08:54;2.40;;;2.30;;